createdAt,value
2018-12-31T00:04:10.200Z,2.60
2018-12-31T00:06:51.543Z,2.60
2018-12-31T00:09:33.210Z,2.60
2018-12-31T00:12:14.035Z,2.60
2018-12-31T00:14:55.179Z,2.50
2018-12-31T00:17:36.876Z,2.60
2018-12-31T00:20:18.092Z,2.60
2018-12-31T00:22:58.691Z,2.50
2018-12-31T00:25:40.099Z,2.50
2018-12-31T00:28:09.584Z,2.60
2018-12-31T00:30:57.912Z,2.50
2018-12-31T00:33:50.591Z,2.50
2018-12-31T00:36:31.836Z,2.50
2018-12-31T00:39:12.972Z,2.50
2018-12-31T00:41:54.365Z,2.50
2018-12-31T00:44:35.228Z,2.60
2018-12-31T00:47:16.078Z,2.50
2018-12-31T00:49:58.289Z,2.60
2018-12-31T00:52:39.433Z,2.60
2018-12-31T00:55:21.183Z,2.60
2018-12-31T00:58:02.321Z,2.50
2018-12-31T01:00:43.688Z,2.50
2018-12-31T01:03:24.945Z,2.50
2018-12-31T01:06:05.499Z,2.60
2018-12-31T01:08:46.170Z,2.50
2018-12-31T01:11:27.586Z,2.60
2018-12-31T01:14:08.723Z,2.60
2018-12-31T01:16:50.075Z,2.60
2018-12-31T01:19:30.913Z,2.60
2018-12-31T01:22:11.931Z,2.50
2018-12-31T01:24:52.393Z,2.50
2018-12-31T01:27:33.272Z,2.50
2018-12-31T01:30:14.518Z,2.50
2018-12-31T01:32:55.833Z,2.50
2018-12-31T01:35:35.649Z,2.40
2018-12-31T01:38:24.538Z,2.40
2018-12-31T01:41:05.613Z,2.30
2018-12-31T01:43:47.110Z,2.40
2018-12-31T01:46:28.383Z,2.40
2018-12-31T01:49:07.743Z,2.40
2018-12-31T01:51:56.652Z,2.40
2018-12-31T01:54:38.186Z,2.40
2018-12-31T01:57:19.195Z,2.40
2018-12-31T02:00:00.576Z,2.50
2018-12-31T02:02:41.203Z,2.50
2018-12-31T02:05:21.925Z,2.50
2018-12-31T02:08:01.916Z,2.50
2018-12-31T02:10:42.460Z,2.50
2018-12-31T02:13:23.850Z,2.50
2018-12-31T02:16:05.379Z,2.50
2018-12-31T02:18:46.150Z,2.50
2018-12-31T02:21:27.011Z,2.50
2018-12-31T02:24:06.560Z,2.50
2018-12-31T02:26:55.791Z,2.50
2018-12-31T02:29:36.857Z,2.50
2018-12-31T02:32:17.545Z,2.50
2018-12-31T02:34:58.649Z,2.50
2018-12-31T02:37:39.924Z,2.40
2018-12-31T02:40:21.845Z,2.50
2018-12-31T02:43:03.200Z,2.50
2018-12-31T02:45:44.716Z,2.50
2018-12-31T02:48:25.730Z,2.50
2018-12-31T02:51:06.613Z,2.40
2018-12-31T02:53:48.191Z,2.40
2018-12-31T02:56:30.069Z,2.30
2018-12-31T02:59:11.148Z,2.30
2018-12-31T03:01:52.132Z,2.30
2018-12-31T03:04:33.023Z,2.30
2018-12-31T03:07:12.491Z,2.30
2018-12-31T03:09:54.091Z,2.30
2018-12-31T03:12:34.186Z,2.30
2018-12-31T03:15:23.035Z,2.30
2018-12-31T03:18:03.171Z,2.20
2018-12-31T03:20:51.443Z,2.20
2018-12-31T03:23:32.012Z,2.20
2018-12-31T03:26:11.795Z,2.20
2018-12-31T03:29:00.067Z,2.20
2018-12-31T03:31:41.515Z,2.20
2018-12-31T03:34:22.583Z,2.20
2018-12-31T03:37:03.692Z,2.20
2018-12-31T03:39:45.124Z,2.30
2018-12-31T03:42:26.540Z,2.20
2018-12-31T03:45:07.671Z,2.30
2018-12-31T03:47:48.867Z,2.20
2018-12-31T03:50:30.073Z,2.20
2018-12-31T03:53:11.172Z,2.10
2018-12-31T03:55:52.167Z,2.20
2018-12-31T03:58:33.003Z,2.20
2018-12-31T04:01:14.598Z,2.20
2018-12-31T04:03:55.900Z,2.20
2018-12-31T04:06:37.202Z,2.10
2018-12-31T04:09:18.187Z,2.20
2018-12-31T04:11:59.281Z,2.20
2018-12-31T04:14:40.808Z,2.20
2018-12-31T04:17:21.643Z,2.20
2018-12-31T04:20:02.970Z,2.20
2018-12-31T04:22:44.115Z,2.20
2018-12-31T04:25:25.375Z,2.20
2018-12-31T04:28:07.052Z,2.20
2018-12-31T04:30:47.752Z,2.30
2018-12-31T04:33:28.304Z,2.20
2018-12-31T04:36:09.161Z,2.20
2018-12-31T04:38:50.511Z,2.20
2018-12-31T04:41:32.052Z,2.20
2018-12-31T04:44:12.896Z,2.20
2018-12-31T04:46:54.475Z,2.20
2018-12-31T04:49:35.220Z,2.20
2018-12-31T04:52:17.212Z,2.20
2018-12-31T04:54:58.529Z,2.20
2018-12-31T04:57:39.836Z,2.30
2018-12-31T05:00:21.218Z,2.30
2018-12-31T05:03:02.707Z,2.30
2018-12-31T05:05:43.505Z,2.30
2018-12-31T05:08:23.363Z,2.30
2018-12-31T05:11:04.471Z,2.30
2018-12-31T05:13:45.505Z,2.30
2018-12-31T05:16:26.749Z,2.30
2018-12-31T05:19:08.450Z,2.30
2018-12-31T05:21:49.971Z,2.30
2018-12-31T05:24:30.957Z,2.30
2018-12-31T05:27:11.780Z,2.40
2018-12-31T05:29:53.419Z,2.40
2018-12-31T05:32:35.238Z,2.30
2018-12-31T05:35:16.102Z,2.40
2018-12-31T05:37:56.981Z,2.40
2018-12-31T05:40:36.252Z,2.40
2018-12-31T05:43:17.606Z,2.40
2018-12-31T05:45:58.720Z,2.40
2018-12-31T05:48:40.801Z,2.40
2018-12-31T05:51:22.379Z,2.40
2018-12-31T05:54:02.937Z,2.40
2018-12-31T05:56:44.233Z,2.40
2018-12-31T05:59:25.622Z,2.40
2018-12-31T06:02:06.478Z,2.40
2018-12-31T06:04:47.533Z,2.40
2018-12-31T06:07:29.289Z,2.40
2018-12-31T06:10:10.400Z,2.40
2018-12-31T06:12:49.743Z,2.40
2018-12-31T06:15:30.406Z,2.40
2018-12-31T06:18:12.614Z,2.40
2018-12-31T06:20:53.705Z,2.40
2018-12-31T06:23:34.696Z,2.40
2018-12-31T06:26:16.063Z,2.40
2018-12-31T06:28:57.430Z,2.40
2018-12-31T06:31:38.600Z,2.40
2018-12-31T06:34:20.079Z,2.40
2018-12-31T06:37:00.623Z,2.40
2018-12-31T06:39:42.135Z,2.30
2018-12-31T06:42:21.987Z,2.30
2018-12-31T06:45:02.799Z,2.30
2018-12-31T06:47:44.558Z,2.30
2018-12-31T06:50:25.596Z,2.30
2018-12-31T06:53:06.689Z,2.30
2018-12-31T06:55:48.067Z,2.30
2018-12-31T06:58:28.084Z,2.30
2018-12-31T07:01:07.632Z,2.30
2018-12-31T07:03:48.898Z,2.30
2018-12-31T07:06:30.448Z,2.30
2018-12-31T07:09:11.750Z,2.30
2018-12-31T07:11:52.902Z,2.30
2018-12-31T07:14:33.763Z,2.30
2018-12-31T07:17:14.712Z,2.30
2018-12-31T07:19:55.296Z,2.30
2018-12-31T07:22:35.769Z,2.30
2018-12-31T07:25:17.064Z,2.30
2018-12-31T07:27:58.408Z,2.30
2018-12-31T07:30:39.755Z,2.40
2018-12-31T07:33:21.078Z,2.30
2018-12-31T07:36:02.055Z,2.30
2018-12-31T07:38:43.715Z,2.40
2018-12-31T07:41:23.100Z,2.30
2018-12-31T07:44:03.686Z,2.40
2018-12-31T07:46:44.511Z,2.30
2018-12-31T07:49:25.404Z,2.40
2018-12-31T07:52:04.699Z,2.40
2018-12-31T07:54:45.878Z,2.40
2018-12-31T07:57:27.849Z,2.40
2018-12-31T08:00:08.932Z,2.30
2018-12-31T08:02:50.529Z,2.40
2018-12-31T08:05:31.749Z,2.40
2018-12-31T08:08:12.790Z,2.40
2018-12-31T08:10:54.592Z,2.40
2018-12-31T08:13:36.109Z,2.40
2018-12-31T08:16:16.712Z,2.40
2018-12-31T08:18:56.216Z,2.40
2018-12-31T08:21:37.452Z,2.40
2018-12-31T08:24:18.784Z,2.30
2018-12-31T08:27:00.711Z,2.40
2018-12-31T08:29:42.104Z,2.40
2018-12-31T08:32:22.924Z,2.40
2018-12-31T08:35:04.088Z,2.30
2018-12-31T08:37:45.766Z,2.30
2018-12-31T08:40:27.721Z,2.40
2018-12-31T08:43:08.824Z,2.30
2018-12-31T08:45:50.187Z,2.30
2018-12-31T08:48:31.171Z,2.30
2018-12-31T08:51:12.622Z,2.30
2018-12-31T08:53:53.978Z,2.30
2018-12-31T08:56:35.676Z,2.40
2018-12-31T08:59:15.145Z,2.40
2018-12-31T09:01:56.867Z,2.40
2018-12-31T09:04:38.650Z,2.30
2018-12-31T09:07:20.156Z,2.40
2018-12-31T09:10:01.263Z,2.40
2018-12-31T09:12:42.183Z,2.30
2018-12-31T09:15:22.473Z,2.40
2018-12-31T09:18:11.405Z,2.40
2018-12-31T09:20:53.232Z,2.40
2018-12-31T09:23:34.431Z,2.40
2018-12-31T09:26:15.964Z,2.40
2018-12-31T09:28:57.194Z,2.30
2018-12-31T09:31:38.114Z,2.40
2018-12-31T09:34:19.058Z,2.40
2018-12-31T09:37:00.596Z,2.40
2018-12-31T09:39:41.786Z,2.50
2018-12-31T09:42:23.167Z,2.50
2018-12-31T09:45:04.393Z,2.50
2018-12-31T09:47:45.801Z,2.60
2018-12-31T09:50:26.673Z,2.60
2018-12-31T09:53:08.373Z,2.70
2018-12-31T09:55:50.009Z,2.60
2018-12-31T09:58:31.464Z,2.70
2018-12-31T10:01:12.715Z,2.70
2018-12-31T10:03:53.532Z,2.70
2018-12-31T10:06:35.121Z,2.70
2018-12-31T10:09:16.463Z,2.70
2018-12-31T10:11:58.107Z,2.70
2018-12-31T10:14:39.428Z,2.70
2018-12-31T10:17:20.520Z,2.60
2018-12-31T10:20:01.777Z,2.70
2018-12-31T10:22:43.009Z,2.70
2018-12-31T10:25:24.437Z,2.80
2018-12-31T10:28:06.118Z,2.70
2018-12-31T10:30:46.449Z,2.80
2018-12-31T10:33:27.680Z,2.70
2018-12-31T10:36:09.139Z,2.70
2018-12-31T10:38:51.280Z,2.80
2018-12-31T10:41:33.174Z,2.80
2018-12-31T10:44:14.788Z,2.80
2018-12-31T10:46:56.398Z,2.80
2018-12-31T10:49:36.086Z,2.80
2018-12-31T10:52:16.057Z,2.80
2018-12-31T10:55:04.889Z,2.80
2018-12-31T10:57:46.312Z,2.80
2018-12-31T11:00:27.917Z,2.80
2018-12-31T11:03:09.114Z,2.90
2018-12-31T11:05:50.496Z,2.80
2018-12-31T11:08:31.684Z,2.80
2018-12-31T11:11:13.168Z,2.70
2018-12-31T11:13:54.462Z,2.70
2018-12-31T11:16:35.784Z,2.80
2018-12-31T11:19:17.027Z,2.70
2018-12-31T11:21:58.445Z,2.70
2018-12-31T11:24:39.762Z,2.70
2018-12-31T11:27:20.899Z,2.70
2018-12-31T11:30:01.814Z,2.80
2018-12-31T11:32:43.277Z,2.70
2018-12-31T11:35:24.642Z,2.80
2018-12-31T11:38:05.802Z,2.70
2018-12-31T11:40:46.489Z,2.70
2018-12-31T11:43:27.536Z,2.70
2018-12-31T11:46:08.318Z,2.80
2018-12-31T11:48:49.354Z,2.80
2018-12-31T11:51:30.608Z,2.80
2018-12-31T11:54:12.197Z,2.70
2018-12-31T11:56:54.225Z,2.70
2018-12-31T11:59:35.226Z,2.80
2018-12-31T12:02:23.332Z,2.80
2018-12-31T12:04:59.807Z,2.70
2018-12-31T12:07:41.635Z,2.80
2018-12-31T12:10:23.186Z,2.80
2018-12-31T12:13:04.504Z,2.80
2018-12-31T12:15:46.093Z,2.80
2018-12-31T12:18:27.361Z,2.80
2018-12-31T12:21:08.893Z,2.80
2018-12-31T12:23:51.205Z,2.80
2018-12-31T12:26:32.337Z,2.70
2018-12-31T12:29:11.835Z,2.70
2018-12-31T12:32:00.996Z,2.70
2018-12-31T12:34:42.217Z,2.70
2018-12-31T12:37:23.442Z,2.70
2018-12-31T12:40:04.767Z,2.70
2018-12-31T12:42:46.148Z,2.70
2018-12-31T12:45:27.653Z,2.70
2018-12-31T12:48:09.054Z,2.60
2018-12-31T12:50:50.801Z,2.60
2018-12-31T12:53:32.475Z,2.60
2018-12-31T12:56:13.872Z,2.60
2018-12-31T12:58:55.755Z,2.60
2018-12-31T13:01:37.301Z,2.60
2018-12-31T13:04:18.539Z,2.60
2018-12-31T13:07:00.187Z,2.50
2018-12-31T13:09:41.824Z,2.60
2018-12-31T13:12:23.546Z,2.50
2018-12-31T13:15:05.034Z,2.50
2018-12-31T13:17:44.726Z,2.50
2018-12-31T13:20:33.362Z,2.50
2018-12-31T13:23:14.619Z,2.50
2018-12-31T13:25:56.370Z,2.50
2018-12-31T13:28:38.024Z,2.40
2018-12-31T13:31:19.890Z,2.40
2018-12-31T13:34:01.188Z,2.40
2018-12-31T13:36:42.301Z,2.40
2018-12-31T13:39:25.153Z,2.40
2018-12-31T13:42:06.640Z,2.40
2018-12-31T13:44:48.366Z,2.40
2018-12-31T13:47:29.529Z,2.40
2018-12-31T13:50:11.132Z,2.40
2018-12-31T13:52:52.340Z,2.40
2018-12-31T13:55:34.018Z,2.40
2018-12-31T13:58:15.488Z,2.40
2018-12-31T14:00:56.781Z,2.40
2018-12-31T14:03:38.079Z,2.40
2018-12-31T14:06:19.385Z,2.40
2018-12-31T14:09:01.155Z,2.40
2018-12-31T14:11:42.593Z,2.30
2018-12-31T14:14:24.384Z,2.30
2018-12-31T14:17:05.767Z,2.40
2018-12-31T14:19:47.071Z,2.30
2018-12-31T14:22:30.126Z,2.40
2018-12-31T14:25:11.175Z,2.40
2018-12-31T14:27:53.217Z,2.40
2018-12-31T14:30:34.977Z,2.40
2018-12-31T14:33:16.582Z,2.30
2018-12-31T14:35:58.217Z,2.30
2018-12-31T14:38:40.025Z,2.40
2018-12-31T14:41:21.363Z,2.40
2018-12-31T14:44:02.566Z,2.40
2018-12-31T14:46:43.813Z,2.30
2018-12-31T14:49:25.062Z,2.30
2018-12-31T14:52:06.771Z,2.20
2018-12-31T14:54:47.963Z,2.30
2018-12-31T14:57:29.716Z,2.30
2018-12-31T15:00:11.277Z,2.30
2018-12-31T15:02:52.624Z,2.30
2018-12-31T15:05:32.379Z,2.30
2018-12-31T15:08:12.140Z,2.20
2018-12-31T15:10:53.591Z,2.20
2018-12-31T15:13:34.874Z,2.20
2018-12-31T15:16:16.285Z,2.20
2018-12-31T15:18:57.715Z,2.10
2018-12-31T15:21:39.285Z,2.10
2018-12-31T15:24:21.189Z,2.10
2018-12-31T15:27:02.405Z,2.10
2018-12-31T15:29:43.775Z,2.10
2018-12-31T15:32:26.142Z,2.10
2018-12-31T15:35:06.930Z,2.20
2018-12-31T15:37:47.769Z,2.20
2018-12-31T15:40:33.418Z,2.10
2018-12-31T15:43:14.455Z,2.10
2018-12-31T15:45:54.892Z,2.10
2018-12-31T15:48:35.723Z,2.00
2018-12-31T15:51:17.720Z,1.90
2018-12-31T15:53:59.395Z,1.90
2018-12-31T15:56:40.796Z,1.90
2018-12-31T15:59:22.216Z,1.90
2018-12-31T16:02:03.843Z,1.90
2018-12-31T16:04:45.437Z,1.90
2018-12-31T16:07:26.906Z,2.00
2018-12-31T16:10:08.120Z,1.90
2018-12-31T16:12:49.238Z,1.90
2018-12-31T16:15:29.984Z,1.90
2018-12-31T16:18:11.029Z,2.00
2018-12-31T16:20:52.243Z,1.90
2018-12-31T16:23:33.790Z,1.90
2018-12-31T16:26:15.305Z,1.90
2018-12-31T16:28:57.354Z,1.90
2018-12-31T16:31:37.400Z,2.00
2018-12-31T16:34:26.056Z,2.00
2018-12-31T16:37:07.590Z,2.00
2018-12-31T16:39:49.326Z,2.00
2018-12-31T16:42:30.572Z,2.00
2018-12-31T16:45:12.832Z,2.00
2018-12-31T16:47:54.056Z,2.00
2018-12-31T16:50:36.103Z,1.90
2018-12-31T16:53:17.492Z,1.90
2018-12-31T16:55:58.664Z,1.90
2018-12-31T16:58:39.428Z,1.90
2018-12-31T17:01:20.952Z,1.80
2018-12-31T17:04:02.902Z,1.80
2018-12-31T17:06:44.219Z,1.80
2018-12-31T17:09:25.860Z,1.80
2018-12-31T17:12:07.998Z,1.80
2018-12-31T17:14:50.103Z,1.80
2018-12-31T17:17:31.499Z,1.70
2018-12-31T17:20:13.512Z,1.70
2018-12-31T17:22:55.104Z,1.70
2018-12-31T17:25:36.285Z,1.70
2018-12-31T17:28:17.986Z,1.60
2018-12-31T17:30:59.981Z,1.70
2018-12-31T17:33:41.315Z,1.70
2018-12-31T17:36:22.300Z,1.70
2018-12-31T17:39:04.189Z,1.70
2018-12-31T17:41:45.703Z,1.70
2018-12-31T17:44:27.207Z,1.60
2018-12-31T17:47:08.605Z,1.60
2018-12-31T17:49:49.749Z,1.60
2018-12-31T17:52:30.538Z,1.60
2018-12-31T17:55:11.280Z,1.60
2018-12-31T17:57:53.228Z,1.60
2018-12-31T18:00:34.422Z,1.70
2018-12-31T18:03:15.766Z,1.60
2018-12-31T18:05:57.447Z,1.70
2018-12-31T18:08:39.317Z,1.70
2018-12-31T18:11:20.728Z,1.70
2018-12-31T18:14:01.904Z,1.70
2018-12-31T18:16:42.935Z,1.70
2018-12-31T18:19:24.605Z,1.70
2018-12-31T18:22:06.522Z,1.70
2018-12-31T18:24:48.066Z,1.70
2018-12-31T18:27:30.325Z,1.70
2018-12-31T18:30:11.963Z,1.70
2018-12-31T18:32:53.388Z,1.70
2018-12-31T18:35:34.764Z,1.70
2018-12-31T18:38:15.510Z,1.70
2018-12-31T18:40:56.449Z,1.70
2018-12-31T18:43:37.950Z,1.70
2018-12-31T18:46:19.710Z,1.70
2018-12-31T18:49:04.865Z,1.70
2018-12-31T18:51:45.926Z,1.70
2018-12-31T18:54:27.506Z,1.70
2018-12-31T18:57:08.500Z,1.70
2018-12-31T18:59:49.758Z,1.70
2018-12-31T19:02:32.539Z,1.70
2018-12-31T19:05:13.948Z,1.70
2018-12-31T19:07:55.164Z,1.70
2018-12-31T19:10:36.688Z,1.70
2018-12-31T19:13:18.076Z,1.70
2018-12-31T19:15:58.837Z,1.70
2018-12-31T19:18:40.335Z,1.70
2018-12-31T19:21:21.787Z,1.70
2018-12-31T19:24:03.174Z,1.70
2018-12-31T19:26:45.912Z,1.60
2018-12-31T19:29:27.994Z,1.60
2018-12-31T19:32:08.703Z,1.60
2018-12-31T19:34:50.238Z,1.60
2018-12-31T19:37:31.177Z,1.60
2018-12-31T19:40:13.926Z,1.60
2018-12-31T19:42:55.541Z,1.60
2018-12-31T19:45:37.253Z,1.60
2018-12-31T19:48:18.419Z,1.60
2018-12-31T19:50:59.564Z,1.60
2018-12-31T19:53:40.564Z,1.60
2018-12-31T19:56:22.654Z,1.60
2018-12-31T19:59:03.729Z,1.60
2018-12-31T20:01:44.986Z,1.60
2018-12-31T20:04:26.713Z,1.60
2018-12-31T20:07:08.505Z,1.60
2018-12-31T20:09:49.485Z,1.60
2018-12-31T20:12:29.113Z,1.60
2018-12-31T20:15:17.535Z,1.60
2018-12-31T20:17:58.631Z,1.60
2018-12-31T20:20:38.948Z,1.60
2018-12-31T20:23:27.582Z,1.60
2018-12-31T20:26:08.277Z,1.60
2018-12-31T20:28:50.026Z,1.60
2018-12-31T20:31:31.395Z,1.60
2018-12-31T20:34:12.955Z,1.60
2018-12-31T20:36:54.531Z,1.60
2018-12-31T20:39:35.608Z,1.60
2018-12-31T20:42:17.035Z,1.60
2018-12-31T20:44:57.672Z,1.60
2018-12-31T20:47:39.311Z,1.60
2018-12-31T20:50:20.763Z,1.60
2018-12-31T20:53:00.169Z,1.60
2018-12-31T20:55:48.591Z,1.60
2018-12-31T20:58:29.820Z,1.50
2018-12-31T21:01:11.391Z,1.60
2018-12-31T21:03:52.946Z,1.60
2018-12-31T21:06:33.763Z,1.60
2018-12-31T21:09:15.172Z,1.60
2018-12-31T21:11:56.857Z,1.60
2018-12-31T21:14:38.683Z,1.60
2018-12-31T21:17:19.599Z,1.60
2018-12-31T21:20:01.585Z,1.60
2018-12-31T21:22:42.736Z,1.60
2018-12-31T21:25:24.167Z,1.60
2018-12-31T21:28:05.790Z,1.60
2018-12-31T21:30:46.454Z,1.60
2018-12-31T21:33:28.483Z,1.60
2018-12-31T21:36:09.455Z,1.60
2018-12-31T21:38:50.110Z,1.60
2018-12-31T21:41:31.164Z,1.60
2018-12-31T21:44:12.518Z,1.60
2018-12-31T21:46:53.601Z,1.60
2018-12-31T21:49:35.010Z,1.70
2018-12-31T21:52:17.399Z,1.60
2018-12-31T21:54:58.847Z,1.60
2018-12-31T21:57:41.127Z,1.60
2018-12-31T22:00:22.932Z,1.60
2018-12-31T22:03:04.237Z,1.70
2018-12-31T22:05:46.561Z,1.70
2018-12-31T22:08:27.904Z,1.60
2018-12-31T22:11:09.523Z,1.60
2018-12-31T22:13:50.955Z,1.60
2018-12-31T22:16:32.701Z,1.60
2018-12-31T22:19:14.029Z,1.60
2018-12-31T22:21:55.066Z,1.60
2018-12-31T22:24:37.083Z,1.60
2018-12-31T22:27:19.023Z,1.60
2018-12-31T22:30:00.452Z,1.60
2018-12-31T22:32:41.596Z,1.60
2018-12-31T22:35:23.287Z,1.60
2018-12-31T22:38:03.125Z,1.60
2018-12-31T22:43:50.358Z,1.60
2018-12-31T22:46:31.422Z,1.60
2018-12-31T22:49:12.372Z,1.60
2018-12-31T22:51:53.859Z,1.60
2018-12-31T22:54:36.693Z,1.60
2018-12-31T22:57:17.823Z,1.70
2018-12-31T22:59:58.795Z,1.60
2018-12-31T23:02:43.748Z,1.70
2018-12-31T23:05:24.931Z,1.70
2018-12-31T23:08:06.286Z,1.70
2018-12-31T23:10:47.831Z,1.70
2018-12-31T23:13:29.524Z,1.70
2018-12-31T23:16:10.803Z,1.70
2018-12-31T23:18:52.780Z,1.70
2018-12-31T23:21:33.510Z,1.70
2018-12-31T23:24:14.247Z,1.70
2018-12-31T23:26:55.419Z,1.70
2018-12-31T23:29:37.487Z,1.70
2018-12-31T23:32:19.002Z,1.70
2018-12-31T23:35:00.456Z,1.70
2018-12-31T23:37:41.761Z,1.70
2018-12-31T23:40:23.166Z,1.70
2018-12-31T23:43:06.542Z,1.70
2018-12-31T23:45:48.367Z,1.70
2018-12-31T23:48:29.971Z,1.70
2018-12-31T23:51:11.260Z,1.70
2018-12-31T23:53:52.313Z,1.70
2018-12-31T23:56:33.142Z,1.70
2018-12-31T23:59:14.612Z,1.70
